Oden, AR (71961)

2:59 AM CDT on March 24, 2017 (GMT -0500)
Mount Ida | | Change Station
Active Advisory: Lake Wind Advisory

Elev 702 ft 34.55 °N, 93.58 °W | Updated 6 minutes ago

Partly Cloudy
Partly Cloudy
71 °F
Feels Like 71 °F
N
9
Wind Variable Wind from South
Gusts 24 mph

Today
High -- | Low -- °F
--% Chance of Precip.
Yesterday
High -- | Low -- °F
Precip. -- in
Pressure 29.93 in
Visibility 10.0 miles
Clouds Clear
Dew Point 45 °F
Humidity 39%
Rainfall 0.00 in
Snow Depth Not available.
7:12 AM 7:30 PM
Waning Crescent, 17% visible
METAR KMWT 240753Z AUTO 19008G21KT 160V230 10SM CLR 22/07 A2996 RMK AO2 SLP135 T02170072
Pressure 29.93 in
Visibility 10.0 miles
Clouds Clear
Dew Point 45 °F
Humidity 39%
Rainfall 0.00 in
Snow Depth Not available.
7:12 AM 7:30 PM
Waning Crescent, 17% visible
METAR KMWT 240753Z AUTO 19008G21KT 160V230 10SM CLR 22/07 A2996 RMK AO2 SLP135 T02170072

Get Your Daily Forecast Email!

Thanks for signing up!

Be on the lookout for a verification email in your inbox.

You'll start receiving severe weather alerts in your inbox..

×

10-Day Weather Forecast

Almanac

Astronomy

Mar. 24, 2017 Rise Set
Actual Time
Civil Twilight
Nautical Twilight
Astronomical Twilight
Moon
Length of Visible Light
Length of Day
Tomorrow will be .
, % of the Moon is Illuminated

Today's Extremes

State Highs State Lows

Community

WunderPhotos

Upload Photos

1,962,540 photos uploaded!

WunderBlog® & News

Nearby

Air Quality

  Air Quality AQ Index Pollutant
Not available.

Snow Depth

Station Depth Elevation

Earthquake Activity

City Distance Mag. Time & Date
Minimum magnitude displayed is 2.5.

Earthquake Activity

City Distance Mag. Time & Date
Minimum magnitude displayed is 2.5.

Coastal Water Temperatures

Place Temperature

Stations

Nearby Weather Stations

Station Location Temp. Windchill Dew Point Humidity Wind Precip. Elev Updated Type
                   

Watches & Warnings

Lake Wind Advisory
Issued: 2:40 PM CDT Mar. 23, 2017 – National Weather Service

... Lake Wind Advisory in effect from 10 am to 10 PM CDT Friday...

The National Weather Service in Little Rock has issued a lake
Wind Advisory, which is in effect from 10 am to 10 PM CDT Friday.

* Event: expect breezy southerly winds of 15 to 25 mph... with gusts
of 30 to 35 mph possible.

* Areas affected: a large portion of Arkansas

* timing: expect the breezy conditions to develop during the late
morning hours on Friday... persisting through the early evening
hours. Expect the breezy conditions to decrease by late Friday
evening.

Precautionary/preparedness actions...

A lake Wind Advisory indicates that winds will cause rough chop
on area lakes. Small boats will be especially prone to capsizing.



229/62